Time;durP1;ratioP1;P1;durP2;ratioP2;P2;SDS_P1;SDS_P2;PMS_P1;PMS_P2;Temp;Humidity;BMP_temperature;BMP_pressure;BME280_temperature;BME280_humidity;BME280_pressure;Samples;Min_cycle;Max_cycle;Signal;HPM_P1;HPM_P2
2022/03/03 00:00:54;;;;;;;19.67;10.85;;;;;;;-2.33;76.87;96798.13;2077062;28;20224;-58
2022/03/03 00:01:56;;;;;;;20.98;11.75;;;;;;;-2.40;77.61;96789.69;2076413;28;20285;-58
2022/03/03 00:02:58;;;;;;;34.22;13.00;;;;;;;-2.43;77.87;96788.00;2076095;28;20587;-59
2022/03/03 00:04:00;;;;;;;25.13;13.30;;;;;;;-2.42;77.93;96783.72;2077150;28;20216;-58
2022/03/03 00:05:02;;;;;;;32.20;13.68;;;;;;;-2.43;77.41;96782.00;2077179;28;20232;-58
2022/03/03 00:06:05;;;;;;;30.13;15.02;;;;;;;-2.44;77.43;96783.75;2075165;28;20202;-58
2022/03/03 00:07:06;;;;;;;28.40;14.20;;;;;;;-2.39;77.03;96781.97;2077143;28;20198;-58
2022/03/03 00:08:08;;;;;;;26.45;13.82;;;;;;;-2.55;77.34;96777.06;2076109;28;20197;-58
2022/03/03 00:09:10;;;;;;;27.00;13.77;;;;;;;-2.66;77.58;96778.06;2075866;28;20229;-58
2022/03/03 00:10:11;;;;;;;24.63;12.25;;;;;;;-2.69;77.45;96778.09;2074544;28;20220;-58
2022/03/03 00:11:13;;;;;;;27.25;14.10;;;;;;;-2.59;77.58;96778.81;2074891;28;20193;-58
2022/03/03 00:12:14;;;;;;;30.83;13.13;;;;;;;-2.45;76.82;96781.19;2074505;28;20198;-58
2022/03/03 00:13:16;;;;;;;43.53;14.93;;;;;;;-2.50;76.96;96775.31;2079224;28;20737;-58
2022/03/03 00:14:18;;;;;;;36.28;15.23;;;;;;;-2.51;77.34;96782.16;2075001;28;20230;-58
2022/03/03 00:15:19;;;;;;;30.77;14.77;;;;;;;-2.49;77.42;96776.97;2075115;28;20217;-58
2022/03/03 00:16:21;;;;;;;31.02;14.10;;;;;;;-2.33;77.04;96781.03;2077529;28;20191;-58
2022/03/03 00:17:22;;;;;;;32.38;15.88;;;;;;;-2.35;76.08;96779.34;2076488;28;20205;-58
2022/03/03 00:18:24;;;;;;;31.13;15.35;;;;;;;-2.39;76.67;96766.56;2077261;28;20205;-58
2022/03/03 00:19:25;;;;;;;36.00;15.43;;;;;;;-2.38;76.92;96777.69;2075807;28;20201;-58
2022/03/03 00:20:27;;;;;;;26.95;14.73;;;;;;;-2.42;76.76;96776.88;2079608;28;20221;-58
2022/03/03 00:21:29;;;;;;;33.20;15.05;;;;;;;-2.38;76.71;96769.97;2076484;28;20315;-58
2022/03/03 00:22:30;;;;;;;29.88;15.10;;;;;;;-2.39;76.23;96789.66;2076243;28;20214;-58
2022/03/03 00:23:32;;;;;;;31.70;14.40;;;;;;;-2.51;77.00;96788.97;2078204;28;20202;-57
2022/03/03 00:24:33;;;;;;;32.25;16.00;;;;;;;-2.62;77.24;96786.56;2078701;28;20198;-58
2022/03/03 00:25:35;;;;;;;34.35;16.92;;;;;;;-2.49;77.13;96787.25;2078470;28;20658;-58
2022/03/03 00:26:36;;;;;;;35.47;16.38;;;;;;;-2.38;76.92;96790.50;2077513;28;20205;-58
2022/03/03 00:27:38;;;;;;;35.78;16.02;;;;;;;-2.46;76.61;96789.78;2077327;28;20203;-58
2022/03/03 00:28:40;;;;;;;37.72;16.30;;;;;;;-2.70;77.46;96789.25;2077149;28;20205;-58
2022/03/03 00:29:41;;;;;;;36.50;15.70;;;;;;;-2.81;77.83;96780.84;2076651;28;20661;-58
2022/03/03 00:30:43;;;;;;;33.60;15.77;;;;;;;-2.88;78.01;96780.09;2075196;28;20206;-58
2022/03/03 00:31:44;;;;;;;33.30;15.75;;;;;;;-2.83;78.04;96790.25;2080293;28;20205;-59
2022/03/03 00:32:46;;;;;;;32.75;16.13;;;;;;;-2.82;77.79;96780.00;2076758;28;20201;-58
2022/03/03 00:33:47;;;;;;;32.85;17.23;;;;;;;-2.83;78.32;96785.97;2078445;28;20197;-58
2022/03/03 00:34:49;;;;;;;33.15;16.45;;;;;;;-2.84;78.26;96783.47;2078484;28;20556;-58
2022/03/03 00:35:50;;;;;;;34.97;16.67;;;;;;;-2.86;77.99;96783.47;2078560;28;20198;-58
2022/03/03 00:36:52;;;;;;;32.20;15.80;;;;;;;-2.92;77.74;96778.44;2077599;28;20209;-57
2022/03/03 00:37:53;;;;;;;73.13;18.20;;;;;;;-2.83;77.61;96785.13;2076346;28;20206;-58
2022/03/03 00:38:55;;;;;;;36.28;14.45;;;;;;;-2.85;77.35;96786.88;2077695;28;20193;-58
2022/03/03 00:39:56;;;;;;;33.33;14.38;;;;;;;-2.81;77.36;96785.97;2077385;28;20225;-58
2022/03/03 00:40:58;;;;;;;33.53;16.63;;;;;;;-2.84;77.67;96780.91;2077686;28;20202;-58
2022/03/03 00:41:59;;;;;;;32.60;15.45;;;;;;;-2.84;77.70;96781.72;2080313;28;20571;-58
2022/03/03 00:43:02;;;;;;;30.15;14.45;;;;;;;-2.79;77.56;96773.97;2078619;28;20563;-58
2022/03/03 00:44:05;;;;;;;31.20;16.05;;;;;;;-2.87;77.79;96784.31;2078687;28;20202;-58
2022/03/03 00:45:08;;;;;;;31.70;16.77;;;;;;;-2.78;77.19;96783.38;2078411;28;20247;-58
2022/03/03 00:46:09;;;;;;;27.70;14.32;;;;;;;-2.84;77.50;96775.78;2076529;28;20198;-58
2022/03/03 00:47:12;;;;;;;34.47;15.70;;;;;;;-2.87;77.29;96780.91;2077418;28;20302;-58
2022/03/03 00:48:14;;;;;;;29.20;15.25;;;;;;;-2.85;77.19;96784.31;2078047;28;20205;-58
2022/03/03 00:49:15;;;;;;;32.63;15.30;;;;;;;-2.82;76.79;96785.13;2078738;28;20384;-58
2022/03/03 00:50:17;;;;;;;28.13;14.90;;;;;;;-2.82;77.07;96786.84;2076807;28;20689;-58
2022/03/03 00:51:18;;;;;;;31.90;16.23;;;;;;;-2.81;76.66;96770.59;2079462;28;20210;-58
2022/03/03 00:52:20;;;;;;;26.25;13.90;;;;;;;-2.88;77.08;96784.34;2076497;28;20542;-58
2022/03/03 00:53:23;;;;;;;36.03;14.50;;;;;;;-2.83;77.35;96777.44;2077870;28;20196;-58
2022/03/03 00:54:24;;;;;;;28.38;14.90;;;;;;;-2.81;77.23;96775.72;2078614;28;20194;-58
2022/03/03 00:55:26;;;;;;;29.42;14.00;;;;;;;-2.66;77.09;96779.81;2076879;28;20225;-58
2022/03/03 00:56:27;;;;;;;30.23;13.77;;;;;;;-2.86;77.07;96775.78;2078085;28;20194;-58
2022/03/03 00:57:29;;;;;;;34.17;14.98;;;;;;;-2.86;77.59;96778.34;2078094;28;20198;-58
2022/03/03 00:58:30;;;;;;;24.98;13.25;;;;;;;-2.90;77.70;96776.69;2075694;28;20206;-58
2022/03/03 00:59:32;;;;;;;29.48;14.80;;;;;;;-2.90;77.80;96775.81;2079664;28;20204;-57
2022/03/03 01:00:33;;;;;;;39.83;17.05;;;;;;;-2.94;78.01;96779.28;2076438;28;20636;-58
2022/03/03 01:01:35;;;;;;;33.17;16.30;;;;;;;-2.81;77.88;96780.84;2077104;28;20324;-58
2022/03/03 01:02:37;;;;;;;33.60;17.05;;;;;;;-2.81;77.58;96780.84;2078214;28;20742;-57
2022/03/03 01:03:39;;;;;;;31.05;16.50;;;;;;;-2.92;77.77;96769.88;2079452;28;20641;-58
2022/03/03 01:04:41;;;;;;;38.10;18.70;;;;;;;-2.91;78.38;96781.84;2077402;28;20206;-58
2022/03/03 01:05:42;;;;;;;33.53;17.25;;;;;;;-2.77;77.32;96777.38;2077131;28;20193;-58
2022/03/03 01:06:44;;;;;;;25.00;14.82;;;;;;;-2.83;77.44;96783.41;2076649;28;20205;-58
2022/03/03 01:07:45;;;;;;;31.52;15.27;;;;;;;-2.85;77.46;96776.63;2076809;28;20205;-58
2022/03/03 01:08:47;;;;;;;31.65;16.80;;;;;;;-2.87;77.57;96780.91;2075146;28;20729;-58
2022/03/03 01:09:48;;;;;;;41.67;16.00;;;;;;;-2.89;77.88;96769.84;2075552;28;20202;-58
2022/03/03 01:10:50;;;;;;;34.15;15.55;;;;;;;-2.92;77.06;96773.31;2075894;28;20217;-58
2022/03/03 01:11:52;;;;;;;30.70;15.15;;;;;;;-2.87;77.29;96778.34;2075454;28;20198;-58
2022/03/03 01:12:53;;;;;;;29.52;15.60;;;;;;;-2.88;77.17;96779.22;2079133;28;20197;-58
2022/03/03 01:13:55;;;;;;;38.30;16.65;;;;;;;-2.92;77.40;96775.88;2075839;28;20199;-58
2022/03/03 01:14:56;;;;;;;26.58;14.48;;;;;;;-2.88;77.39;96781.78;2076553;28;20221;-58
2022/03/03 01:15:58;;;;;;;30.58;15.10;;;;;;;-2.81;77.31;96780.84;2079020;28;20512;-58
2022/03/03 01:17:00;;;;;;;31.75;15.48;;;;;;;-2.88;77.12;96774.09;2078035;28;20201;-57
2022/03/03 01:18:01;;;;;;;38.05;15.95;;;;;;;-2.94;77.29;96771.59;2075494;28;20213;-58
2022/03/03 01:19:04;;;;;;;29.80;15.95;;;;;;;-2.99;77.64;96769.94;2075401;28;20202;-58
2022/03/03 01:20:09;;;;;;;26.83;14.90;;;;;;;-3.07;78.48;96765.81;2074766;28;20787;-58
2022/03/03 01:21:10;;;;;;;28.45;15.65;;;;;;;-3.20;78.82;96749.72;2076062;28;20609;-58
2022/03/03 01:22:12;;;;;;;33.35;16.35;;;;;;;-3.07;78.73;96760.69;2077393;28;20194;-58
2022/03/03 01:23:13;;;;;;;32.40;16.25;;;;;;;-3.10;78.54;96761.53;2076728;28;20209;-58
2022/03/03 01:24:15;;;;;;;36.95;16.80;;;;;;;-2.94;78.17;96757.09;2078225;28;20200;-58
2022/03/03 01:25:17;;;;;;;37.03;16.30;;;;;;;-2.94;78.16;96753.66;2078153;28;20228;-58
2022/03/03 01:26:19;;;;;;;31.75;15.82;;;;;;;-3.02;78.03;96757.19;2077239;28;20194;-58
2022/03/03 01:27:20;;;;;;;29.35;14.80;;;;;;;-3.11;78.16;96764.16;2076856;28;20749;-58
2022/03/03 01:28:22;;;;;;;30.50;15.68;;;;;;;-3.13;78.31;96759.03;2077989;28;20194;-58
2022/03/03 01:29:24;;;;;;;35.83;14.80;;;;;;;-3.20;78.54;96757.41;2076848;28;20193;-58
2022/03/03 01:30:26;;;;;;;29.65;14.15;;;;;;;-3.22;78.65;96754.84;2075738;28;20222;-58
2022/03/03 01:31:27;;;;;;;33.08;15.57;;;;;;;-3.16;78.22;96753.94;2077027;28;20196;-58
2022/03/03 01:32:29;;;;;;;30.30;15.02;;;;;;;-3.18;78.74;96758.22;2077664;28;20263;-58
2022/03/03 01:33:30;;;;;;;40.28;17.55;;;;;;;-3.13;79.07;96756.47;2078317;28;20197;-58
2022/03/03 01:34:32;;;;;;;32.45;15.98;;;;;;;-3.04;78.67;96755.50;2078773;28;20509;-58
2022/03/03 01:35:34;;;;;;;37.35;16.10;;;;;;;-3.12;78.81;96753.03;2075464;28;20256;-58
2022/03/03 01:36:35;;;;;;;34.88;16.45;;;;;;;-3.15;79.04;96747.97;2075628;28;20194;-58
2022/03/03 01:37:37;;;;;;;30.27;13.77;;;;;;;-3.12;79.07;96750.47;2076272;28;20197;-58
2022/03/03 01:38:39;;;;;;;32.60;15.27;;;;;;;-3.19;79.17;96743.75;2075819;28;20653;-58
2022/03/03 01:39:40;;;;;;;33.75;16.15;;;;;;;-3.19;78.88;96734.34;2079173;28;20208;-57
2022/03/03 01:40:41;;;;;;;33.08;16.70;;;;;;;-3.22;79.04;96739.47;2074751;28;20201;-58
2022/03/03 01:41:43;;;;;;;39.17;15.45;;;;;;;-3.33;79.50;96735.34;2078895;28;20198;-58
2022/03/03 01:42:44;;;;;;;32.53;15.07;;;;;;;-3.38;79.65;96736.25;2076707;28;20205;-58
2022/03/03 01:43:46;;;;;;;31.60;14.60;;;;;;;-3.36;79.74;96731.13;2077543;28;20190;-58
2022/03/03 01:44:48;;;;;;;29.73;15.80;;;;;;;-3.40;79.63;96730.31;2078599;28;20692;-58
2022/03/03 01:45:49;;;;;;;30.48;16.38;;;;;;;-3.41;79.26;96731.19;2077513;28;20202;-58
2022/03/03 01:46:54;;;;;;;27.83;14.45;;;;;;;-3.40;79.41;96730.31;2076354;28;20205;-57
2022/03/03 01:47:55;;;;;;;28.92;14.93;;;;;;;-3.34;79.23;96734.50;2077233;28;20197;-58
2022/03/03 01:48:57;;;;;;;28.73;14.55;;;;;;;-3.37;78.86;96737.13;2075015;28;20573;-58
2022/03/03 01:49:59;;;;;;;31.98;15.50;;;;;;;-3.39;79.02;96731.19;2074878;28;20660;-58
2022/03/03 01:51:00;;;;;;;28.60;15.10;;;;;;;-3.43;79.21;96732.91;2074670;28;20209;-58
2022/03/03 01:52:02;;;;;;;27.77;15.15;;;;;;;-3.44;79.11;96738.88;2075772;28;20209;-58
2022/03/03 01:53:04;;;;;;;26.45;13.85;;;;;;;-3.42;78.96;96734.59;2076756;28;20212;-58
2022/03/03 01:54:06;;;;;;;26.83;14.05;;;;;;;-3.40;79.20;96735.44;2075884;28;20208;-58
2022/03/03 01:55:09;;;;;;;27.13;15.13;;;;;;;-3.34;78.75;96743.91;2074780;28;20735;-59
2022/03/03 01:56:12;;;;;;;35.17;13.50;;;;;;;-3.34;78.87;96728.56;2078341;28;20224;-59
2022/03/03 01:57:19;;;;;;;33.15;15.20;;;;;;;-3.33;78.96;96740.47;2077380;28;20511;-58
2022/03/03 01:58:21;;;;;;;25.27;13.73;;;;;;;-3.23;78.79;96734.41;2076228;28;20189;-58
2022/03/03 01:59:23;;;;;;;28.15;13.90;;;;;;;-3.19;78.70;96736.06;2076600;28;20728;-58
2022/03/03 02:00:24;;;;;;;37.47;14.48;;;;;;;-3.12;78.09;96734.25;2076052;28;20750;-59
2022/03/03 02:01:26;;;;;;;33.22;14.10;;;;;;;-3.27;78.42;96736.16;2075964;28;20194;-58
2022/03/03 02:02:28;;;;;;;33.38;14.20;;;;;;;-3.26;78.37;96736.97;2076288;28;20202;-58
2022/03/03 02:03:30;;;;;;;29.30;14.35;;;;;;;-3.24;78.26;96727.56;2077193;28;20343;-58
2022/03/03 02:04:32;;;;;;;27.33;13.65;;;;;;;-3.35;78.63;96732.84;2076813;28;20197;-59
2022/03/03 02:05:33;;;;;;;32.15;14.75;;;;;;;-3.24;78.81;96730.97;2077526;28;20197;-58
2022/03/03 02:06:37;;;;;;;24.75;12.90;;;;;;;-3.23;78.41;96731.84;2078380;28;20197;-58
2022/03/03 02:07:39;;;;;;;28.58;13.98;;;;;;;-3.23;78.55;96724.16;2077583;28;20198;-58
2022/03/03 02:08:40;;;;;;;29.15;15.70;;;;;;;-3.29;79.05;96724.19;2077576;28;20197;-58
2022/03/03 02:09:42;;;;;;;29.23;14.50;;;;;;;-3.28;79.18;96720.78;2078794;28;20197;-59
2022/03/03 02:10:43;;;;;;;31.20;15.32;;;;;;;-3.29;78.83;96721.63;2079775;28;20537;-59
2022/03/03 02:11:46;;;;;;;31.33;13.85;;;;;;;-3.33;79.74;96725.09;2079908;28;20799;-58
2022/03/03 02:12:48;;;;;;;28.92;13.05;;;;;;;-3.24;79.18;96722.44;2080266;28;20204;-59
2022/03/03 02:13:50;;;;;;;25.42;14.00;;;;;;;-3.24;78.89;96727.56;2078602;28;20209;-58
2022/03/03 02:14:51;;;;;;;31.05;14.27;;;;;;;-3.24;78.79;96719.88;2077799;28;20244;-58
2022/03/03 02:15:55;;;;;;;26.70;13.57;;;;;;;-3.38;78.94;96720.88;2076748;28;20232;-58
2022/03/03 02:16:56;;;;;;;27.10;14.93;;;;;;;-3.53;80.16;96715.94;2077629;28;20790;-58
2022/03/03 02:17:59;;;;;;;29.67;13.57;;;;;;;-3.55;79.92;96712.53;2075694;28;20205;-58
2022/03/03 02:19:01;;;;;;;25.00;12.93;;;;;;;-3.51;79.59;96719.31;2076340;28;20201;-58
2022/03/03 02:20:07;;;;;;;27.05;13.90;;;;;;;-3.49;79.93;96716.75;2075790;28;20221;-58
2022/03/03 02:21:15;;;;;;;26.73;13.43;;;;;;;-3.29;79.16;96716.50;2074402;28;20224;-58
2022/03/03 02:22:16;;;;;;;24.80;13.20;;;;;;;-3.32;79.15;96717.41;2076438;28;20189;-58
2022/03/03 02:23:18;;;;;;;31.20;14.90;;;;;;;-3.40;79.28;96716.66;2076970;28;20194;-59
2022/03/03 02:24:20;;;;;;;28.92;13.63;;;;;;;-3.54;79.70;96715.97;2077016;28;20198;-58
2022/03/03 02:25:22;;;;;;;27.48;13.63;;;;;;;-3.50;79.92;96715.91;2075252;28;20229;-58
2022/03/03 02:26:24;;;;;;;29.70;14.75;;;;;;;-3.50;79.79;96718.47;2078596;28;20644;-59
2022/03/03 02:27:27;;;;;;;25.48;12.60;;;;;;;-3.38;79.76;96726.00;2076645;28;20194;-59
2022/03/03 02:28:28;;;;;;;26.30;14.00;;;;;;;-3.31;79.23;96723.38;2076671;28;20197;-58
2022/03/03 02:29:30;;;;;;;27.50;12.90;;;;;;;-3.43;79.66;96715.00;2076057;28;20201;-58
2022/03/03 02:30:32;;;;;;;24.80;12.70;;;;;;;-3.45;79.41;96719.28;2075063;28;20225;-58
2022/03/03 02:31:34;;;;;;;29.95;13.57;;;;;;;-3.54;80.02;96721.94;2076159;28;20197;-59
2022/03/03 02:32:35;;;;;;;26.02;13.68;;;;;;;-3.49;79.87;96720.19;2077596;28;20288;-58
2022/03/03 02:33:37;;;;;;;21.50;12.65;;;;;;;-3.48;79.80;96723.59;2079325;28;20208;-58
2022/03/03 02:34:46;;;;;;;30.95;13.45;;;;;;;-3.41;79.87;96726.06;2079463;28;20205;-58
2022/03/03 02:35:48;;;;;;;27.77;13.90;;;;;;;-3.38;79.27;96727.72;2078857;28;20201;-58
2022/03/03 02:36:49;;;;;;;28.35;14.07;;;;;;;-3.35;79.12;96731.97;2076912;28;20252;-58
2022/03/03 02:37:51;;;;;;;32.80;14.15;;;;;;;-3.41;79.26;96728.63;2079305;28;20201;-58
2022/03/03 02:38:55;;;;;;;29.50;14.40;;;;;;;-3.42;79.02;96732.03;2079259;28;20205;-58
2022/03/03 02:39:56;;;;;;;30.83;13.65;;;;;;;-3.43;79.43;96730.34;2071087;28;20241;-59
2022/03/03 02:40:58;;;;;;;29.73;15.35;;;;;;;-3.35;79.09;96727.72;2075595;28;20630;-58
2022/03/03 02:41:59;;;;;;;28.63;14.50;;;;;;;-3.40;78.74;96734.59;2077739;28;20315;-59
2022/03/03 02:43:01;;;;;;;31.35;13.60;;;;;;;-3.50;79.17;96727.88;2076031;28;20194;-58
2022/03/03 02:44:03;;;;;;;36.38;15.10;;;;;;;-3.51;79.53;96731.28;2074631;28;20221;-58
2022/03/03 02:45:06;;;;;;;34.53;13.25;;;;;;;-3.45;79.88;96726.09;2078602;28;20251;-58
2022/03/03 02:46:08;;;;;;;35.92;14.77;;;;;;;-3.47;80.35;96733.81;2077954;28;20208;-58
2022/03/03 02:47:10;;;;;;;26.33;13.00;;;;;;;-3.52;80.39;96733.00;2077450;28;20196;-59
2022/03/03 02:48:11;;;;;;;27.27;13.65;;;;;;;-3.56;80.75;96733.91;2077237;28;20198;-58
2022/03/03 02:49:13;;;;;;;31.98;14.93;;;;;;;-3.50;80.42;96728.72;2075974;28;20208;-59
2022/03/03 02:50:16;;;;;;;30.95;14.85;;;;;;;-3.46;80.00;96725.25;2077396;28;20229;-59
2022/03/03 02:51:18;;;;;;;26.75;14.45;;;;;;;-3.40;79.77;96726.91;2073777;28;20193;-58
2022/03/03 02:52:19;;;;;;;32.53;14.73;;;;;;;-3.60;80.39;96716.91;2076455;28;20197;-58
2022/03/03 02:53:21;;;;;;;37.70;14.07;;;;;;;-3.71;80.54;96713.59;2076947;28;20590;-58
2022/03/03 02:54:22;;;;;;;26.45;14.70;;;;;;;-3.65;80.80;96716.09;2077558;28;20201;-59
2022/03/03 02:55:24;;;;;;;28.95;14.32;;;;;;;-3.56;80.97;96721.09;2076341;28;20225;-59
2022/03/03 02:56:25;;;;;;;26.92;13.52;;;;;;;-3.56;80.77;96718.56;2076953;28;20205;-58
2022/03/03 02:58:47;;;;;;;26.63;13.95;;;;;;;-3.44;80.23;96713.28;2076353;28;20209;-58
2022/03/03 02:59:48;;;;;;;29.98;14.07;;;;;;;-3.43;80.44;96719.25;2075260;28;20202;-59
2022/03/03 03:00:50;;;;;;;33.80;13.95;;;;;;;-3.34;80.18;96713.19;2073780;28;20530;-59
2022/03/03 03:01:51;;;;;;;27.70;13.35;;;;;;;-3.28;80.04;96713.09;2075671;28;20694;-58
2022/03/03 03:02:54;;;;;;;31.25;14.07;;;;;;;-3.35;80.51;96717.47;2076212;28;20225;-58
2022/03/03 03:03:56;;;;;;;30.05;14.18;;;;;;;-3.35;81.42;96711.47;2075156;28;20724;-58
2022/03/03 03:04:57;;;;;;;25.48;13.52;;;;;;;-3.40;81.59;96709.81;2075457;28;20222;-58
2022/03/03 03:05:59;;;;;;;28.10;13.98;;;;;;;-3.42;81.95;96708.16;2074453;28;20197;-58
2022/03/03 03:07:00;;;;;;;30.67;13.38;;;;;;;-3.49;81.89;96704.81;2074260;28;20198;-59
2022/03/03 03:08:03;;;;;;;29.40;12.88;;;;;;;-3.51;81.87;96711.66;2074521;28;20197;-58
2022/03/03 03:09:05;;;;;;;25.52;13.98;;;;;;;-3.50;81.78;96708.22;2076286;28;20237;-58
2022/03/03 03:10:07;;;;;;;26.55;13.75;;;;;;;-3.46;81.88;96712.44;2077464;28;20213;-58
2022/03/03 03:11:10;;;;;;;27.48;13.90;;;;;;;-3.36;81.64;96709.78;2074844;28;20190;-58
2022/03/03 03:12:11;;;;;;;31.25;14.30;;;;;;;-3.33;81.37;96708.03;2076467;28;20205;-58
2022/03/03 03:13:14;;;;;;;24.23;14.23;;;;;;;-3.25;81.08;96705.38;2076514;28;20561;-58
2022/03/03 03:14:16;;;;;;;27.35;13.82;;;;;;;-3.16;80.88;96705.25;2077511;28;20694;-58
2022/03/03 03:15:18;;;;;;;23.38;13.52;;;;;;;-3.20;80.85;96701.03;2076044;28;20225;-59
2022/03/03 03:16:20;;;;;;;31.13;14.73;;;;;;;-3.31;81.12;96697.75;2077465;28;20208;-58
2022/03/03 03:17:22;;;;;;;25.00;14.02;;;;;;;-3.47;81.20;96702.22;2073948;28;20742;-58
2022/03/03 03:18:23;;;;;;;27.20;13.20;;;;;;;-3.69;81.11;96699.06;2075641;28;20201;-58
2022/03/03 03:19:25;;;;;;;27.95;13.90;;;;;;;-3.82;80.99;96696.66;2075197;28;20192;-58
2022/03/03 03:20:27;;;;;;;26.27;13.77;;;;;;;-3.92;81.18;96692.50;2073874;28;20222;-58
2022/03/03 03:21:28;;;;;;;29.20;14.07;;;;;;;-3.83;81.01;96699.22;2074153;28;20201;-58
2022/03/03 03:22:29;;;;;;;23.48;13.32;;;;;;;-3.83;81.03;96694.94;2073286;28;20637;-58
2022/03/03 03:23:31;;;;;;;23.75;13.20;;;;;;;-3.92;81.36;96689.94;2076906;28;20209;-58
2022/03/03 03:24:32;;;;;;;27.60;12.85;;;;;;;-4.08;81.51;96691.78;2074369;28;20589;-58
2022/03/03 03:25:34;;;;;;;26.00;13.65;;;;;;;-4.08;81.92;96693.50;2077388;28;20725;-58
2022/03/03 03:26:35;;;;;;;34.30;13.55;;;;;;;-4.03;81.65;96690.03;2077173;28;20197;-58
2022/03/03 03:27:38;;;;;;;30.70;14.52;;;;;;;-4.07;81.77;96693.47;2075522;28;20610;-58
2022/03/03 03:28:39;;;;;;;28.25;14.93;;;;;;;-4.06;82.35;96691.75;2076589;28;20220;-58
2022/03/03 03:29:41;;;;;;;26.17;15.00;;;;;;;-4.05;82.32;96693.47;2076027;28;20202;-58
2022/03/03 03:30:43;;;;;;;30.67;15.00;;;;;;;-4.04;82.09;96695.16;2074862;28;20209;-58
2022/03/03 03:31:44;;;;;;;26.27;12.65;;;;;;;-3.99;82.24;96691.69;2075576;28;20206;-59
2022/03/03 03:32:46;;;;;;;27.13;13.93;;;;;;;-3.97;81.99;96686.56;2075756;28;20197;-58
2022/03/03 03:33:47;;;;;;;31.80;15.63;;;;;;;-3.95;82.32;96684.00;2075778;28;20205;-58
2022/03/03 03:34:49;;;;;;;28.90;15.50;;;;;;;-4.04;82.69;96683.22;2077179;28;20200;-58
2022/03/03 03:35:50;;;;;;;27.23;13.70;;;;;;;-4.01;82.21;96692.56;2077414;28;20220;-58
2022/03/03 03:36:52;;;;;;;26.45;14.57;;;;;;;-4.01;82.54;96690.84;2073427;28;20196;-58
2022/03/03 03:37:54;;;;;;;28.90;13.95;;;;;;;-3.94;82.31;96691.66;2076513;28;20202;-58
2022/03/03 03:38:57;;;;;;;28.48;14.35;;;;;;;-3.95;81.51;96679.72;2077543;28;20198;-58
2022/03/03 03:39:58;;;;;;;27.35;13.52;;;;;;;-3.92;81.49;96683.94;2077028;28;20606;-58
2022/03/03 03:41:00;;;;;;;29.65;14.02;;;;;;;-4.00;81.99;96690.00;2076229;28;20209;-58
2022/03/03 03:42:02;;;;;;;22.85;13.50;;;;;;;-4.07;82.14;96692.63;2075300;28;20201;-59
2022/03/03 03:43:04;;;;;;;27.60;13.50;;;;;;;-4.08;82.00;96683.25;2076904;28;20201;-58
2022/03/03 03:44:05;;;;;;;26.33;14.90;;;;;;;-4.03;81.55;96687.47;2075985;28;20541;-58
2022/03/03 03:45:08;;;;;;;26.45;13.15;;;;;;;-4.03;81.52;96692.59;2074887;28;20229;-59
2022/03/03 03:46:09;;;;;;;27.48;13.30;;;;;;;-3.97;81.17;96692.53;2076673;28;20197;-58
2022/03/03 03:47:12;;;;;;;28.85;13.57;;;;;;;-3.94;81.28;96690.78;2075851;28;20234;-59
2022/03/03 03:48:14;;;;;;;31.80;15.45;;;;;;;-4.02;81.41;96678.06;2076942;28;20198;-58
2022/03/03 03:49:16;;;;;;;33.05;14.70;;;;;;;-4.07;81.16;96695.19;2076053;28;20205;-58
2022/03/03 03:50:17;;;;;;;24.25;12.98;;;;;;;-4.07;81.35;96687.53;2077564;28;20220;-58
2022/03/03 03:51:19;;;;;;;24.27;13.10;;;;;;;-4.12;81.61;96696.94;2072926;28;20201;-58
2022/03/03 03:52:20;;;;;;;26.90;15.80;;;;;;;-4.20;82.28;96690.19;2078088;28;20247;-59
2022/03/03 03:53:23;;;;;;;37.72;15.57;;;;;;;-4.27;82.35;96682.56;2076881;28;20668;-58
2022/03/03 03:54:24;;;;;;;33.33;14.68;;;;;;;-4.33;82.51;96680.06;2077115;28;20197;-58
2022/03/03 03:55:26;;;;;;;29.35;14.40;;;;;;;-4.62;82.58;96648.78;2075420;28;20722;-58
2022/03/03 03:56:28;;;;;;;33.83;15.27;;;;;;;-4.45;82.92;96674.22;2077741;28;20197;-58
2022/03/03 03:57:29;;;;;;;31.40;16.10;;;;;;;-4.37;82.66;96672.44;2076366;28;20214;-58
2022/03/03 03:58:31;;;;;;;31.85;15.75;;;;;;;-4.26;82.08;96676.59;2076033;28;20216;-58
2022/03/03 03:59:32;;;;;;;33.45;15.63;;;;;;;-4.24;81.73;96674.88;2076262;28;20205;-58
2022/03/03 04:00:34;;;;;;;30.83;13.60;;;;;;;-4.17;81.36;96664.56;2075991;28;20563;-59
2022/03/03 04:01:36;;;;;;;30.63;15.77;;;;;;;-4.20;81.25;96664.59;2076073;28;20193;-58
2022/03/03 04:02:38;;;;;;;32.25;14.82;;;;;;;-4.37;81.64;96661.38;2074970;28;20208;-58
2022/03/03 04:03:40;;;;;;;27.45;13.55;;;;;;;-4.32;81.86;96662.16;2077672;28;20200;-58
2022/03/03 04:04:42;;;;;;;27.05;13.85;;;;;;;-4.38;81.90;96660.50;2075595;28;20216;-58
2022/03/03 04:05:43;;;;;;;27.10;13.57;;;;;;;-4.48;82.44;96661.44;2076393;28;20685;-59
2022/03/03 04:06:45;;;;;;;36.92;15.02;;;;;;;-4.47;82.32;96659.75;2077868;28;20629;-58
2022/03/03 04:07:46;;;;;;;26.45;14.43;;;;;;;-4.52;81.74;96671.72;2075783;28;20208;-58
2022/03/03 04:08:48;;;;;;;27.00;13.90;;;;;;;-4.52;81.93;96667.47;2076653;28;20237;-58
2022/03/03 04:09:49;;;;;;;28.08;14.35;;;;;;;-4.58;81.90;96668.34;2078173;28;20193;-58
2022/03/03 04:10:51;;;;;;;28.50;14.52;;;;;;;-4.59;82.31;96665.81;2077821;28;20198;-58
2022/03/03 04:11:52;;;;;;;31.70;15.82;;;;;;;-4.60;81.72;96672.63;2076112;28;20204;-58
2022/03/03 04:12:55;;;;;;;31.65;14.93;;;;;;;-4.64;81.70;96663.28;2076339;28;20209;-58
2022/03/03 04:13:57;;;;;;;38.45;14.27;;;;;;;-4.71;81.43;96656.53;2074021;28;20202;-58
2022/03/03 04:14:59;;;;;;;28.17;14.05;;;;;;;-4.64;81.48;96658.19;2075371;28;20229;-59
2022/03/03 04:16:01;;;;;;;26.95;14.80;;;;;;;-4.61;81.70;96668.34;2077457;28;20193;-58
2022/03/03 04:17:03;;;;;;;28.50;14.80;;;;;;;-4.48;81.32;96665.72;2078604;28;20330;-58
2022/03/03 04:18:04;;;;;;;33.63;14.90;;;;;;;-4.42;81.40;96661.41;2074157;28;20208;-58
2022/03/03 04:19:06;;;;;;;27.38;14.73;;;;;;;-4.38;81.34;96664.78;2073490;28;20202;-58
2022/03/03 04:20:08;;;;;;;26.90;13.57;;;;;;;-4.38;81.12;96664.78;2076078;28;20229;-58
2022/03/03 04:21:11;;;;;;;27.95;14.32;;;;;;;-4.40;81.01;96666.50;2074468;28;20547;-58
2022/03/03 04:22:12;;;;;;;28.30;14.40;;;;;;;-4.33;80.27;96664.72;2076981;28;20194;-58
2022/03/03 04:23:17;;;;;;;28.63;13.57;;;;;;;-4.38;80.27;96665.63;2076013;28;20213;-58
2022/03/03 04:24:18;;;;;;;28.38;14.30;;;;;;;-4.33;79.93;96669.84;2076999;28;20208;-58
2022/03/03 04:25:20;;;;;;;30.88;13.02;;;;;;;-4.40;80.30;96667.34;2075614;28;20214;-59
2022/03/03 04:26:21;;;;;;;28.08;13.20;;;;;;;-4.49;80.67;96664.00;2074783;28;20548;-58
2022/03/03 04:27:23;;;;;;;34.92;14.10;;;;;;;-4.55;81.04;96666.63;2075306;28;20209;-58
2022/03/03 04:28:24;;;;;;;28.38;13.00;;;;;;;-4.57;81.40;96677.72;2077931;28;20204;-58
2022/03/03 04:29:26;;;;;;;33.22;14.50;;;;;;;-4.63;81.80;96669.25;2074730;28;20197;-58
2022/03/03 04:30:28;;;;;;;28.88;14.77;;;;;;;-4.66;82.24;96676.94;2075556;28;20217;-58
2022/03/03 04:31:29;;;;;;;38.08;13.90;;;;;;;-4.60;82.57;96671.78;2076125;28;20677;-58
2022/03/03 04:32:31;;;;;;;26.33;14.30;;;;;;;-4.51;82.44;96669.13;2077200;28;20197;-58
2022/03/03 04:33:33;;;;;;;28.30;14.50;;;;;;;-4.57;82.16;96675.19;2073494;28;20205;-59
2022/03/03 04:34:35;;;;;;;25.88;13.57;;;;;;;-4.60;82.36;96674.34;2075754;28;20213;-58
2022/03/03 04:35:36;;;;;;;29.15;14.02;;;;;;;-4.65;82.77;96676.06;2076495;28;20216;-58
2022/03/03 04:36:37;;;;;;;34.08;15.10;;;;;;;-4.63;82.61;96675.19;2076604;28;20600;-58
2022/03/03 04:37:39;;;;;;;31.65;13.73;;;;;;;-4.62;82.42;96673.50;2076610;28;20229;-58
2022/03/03 04:38:41;;;;;;;26.42;13.73;;;;;;;-4.53;81.70;96677.69;2076162;28;20209;-58
2022/03/03 04:39:42;;;;;;;21.63;12.10;;;;;;;-4.49;81.32;96671.69;2076187;28;20206;-58
2022/03/03 04:40:44;;;;;;;30.45;15.13;;;;;;;-4.43;80.94;96671.63;2075701;28;20577;-58
2022/03/03 04:41:46;;;;;;;28.48;14.30;;;;;;;-4.49;80.98;96669.13;2072353;28;20637;-58
2022/03/03 04:42:49;;;;;;;32.08;14.65;;;;;;;-4.39;80.73;96673.28;2078763;28;20212;-58
2022/03/03 04:43:51;;;;;;;24.42;13.00;;;;;;;-4.46;80.91;96671.69;2076777;28;20209;-58
2022/03/03 04:44:52;;;;;;;29.92;12.48;;;;;;;-4.47;81.03;96675.94;2074711;28;20229;-58
2022/03/03 04:45:54;;;;;;;34.25;12.60;;;;;;;-4.51;81.19;96669.13;2077537;28;20201;-59